createdAt,value
2019-04-25T00:01:47.571Z,99.90
2019-04-25T00:04:37.013Z,99.90
2019-04-25T00:07:06.758Z,99.90
2019-04-25T00:09:37.932Z,99.90
2019-04-25T00:12:07.952Z,99.90
2019-04-25T00:14:56.766Z,99.90
2019-04-25T00:17:27.161Z,99.90
2019-04-25T00:19:56.799Z,99.90
2019-04-25T00:22:29.464Z,99.90
2019-04-25T00:25:12.921Z,99.90
2019-04-25T00:27:32.863Z,99.90
2019-04-25T00:30:03.177Z,99.90
2019-04-25T00:32:33.023Z,99.90
2019-04-25T00:35:02.555Z,99.90
2019-04-25T00:37:32.361Z,99.90
2019-04-25T00:40:21.955Z,99.90
2019-04-25T00:42:52.611Z,99.90
2019-04-25T00:45:22.733Z,99.90
2019-04-25T00:47:52.939Z,99.90
2019-04-25T00:50:22.823Z,99.90
2019-04-25T00:52:55.080Z,99.90
2019-04-25T00:55:28.922Z,99.90
2019-04-25T00:57:58.942Z,99.90
2019-04-25T01:00:30.044Z,99.90
2019-04-25T01:03:01.862Z,99.90
2019-04-25T01:05:32.429Z,99.90
2019-04-25T01:08:02.189Z,99.90
2019-04-25T01:10:32.040Z,99.90
2019-04-25T01:13:03.117Z,99.90
2019-04-25T01:15:52.896Z,99.90
2019-04-25T01:18:23.304Z,99.90
2019-04-25T01:20:54.434Z,99.90
2019-04-25T01:23:24.174Z,99.90
2019-04-25T01:25:54.653Z,99.90
2019-04-25T01:28:24.485Z,99.90
2019-04-25T01:30:55.132Z,99.90
2019-04-25T01:33:25.678Z,99.90
2019-04-25T01:35:57.022Z,99.90
2019-04-25T01:38:28.227Z,99.90
2019-04-25T01:40:59.511Z,99.90
2019-04-25T01:43:30.605Z,99.90
2019-04-25T01:46:01.021Z,99.90
2019-04-25T01:48:30.513Z,99.90
2019-04-25T01:50:59.977Z,99.90
2019-04-25T01:53:49.122Z,99.90
2019-04-25T01:56:18.900Z,99.90
2019-04-25T01:59:07.863Z,99.90
2019-04-25T02:01:56.849Z,99.90
2019-04-25T02:04:26.344Z,99.90
2019-04-25T02:06:55.993Z,99.90
2019-04-25T02:09:25.520Z,99.90
2019-04-25T02:11:59.334Z,99.90
2019-04-25T02:14:28.992Z,99.90
2019-04-25T02:16:58.785Z,99.90
2019-04-25T02:19:28.275Z,99.90
2019-04-25T02:22:17.127Z,99.90
2019-04-25T02:24:47.562Z,99.90
2019-04-25T02:27:17.087Z,99.90
2019-04-25T02:29:46.585Z,99.90
2019-04-25T02:32:16.182Z,99.90
2019-04-25T02:34:45.835Z,99.90
2019-04-25T02:37:15.365Z,99.90
2019-04-25T02:39:45.096Z,99.90
2019-04-25T02:42:16.959Z,99.90
2019-04-25T02:44:47.569Z,99.90
2019-04-25T02:47:18.912Z,99.90
2019-04-25T02:49:50.054Z,99.90
2019-04-25T02:52:21.124Z,99.90
2019-04-25T02:54:50.635Z,99.90
2019-04-25T02:57:28.847Z,99.90
2019-04-25T02:59:58.570Z,99.90
2019-04-25T03:02:28.344Z,99.90
2019-04-25T03:04:59.427Z,99.90
2019-04-25T03:07:29.312Z,99.90
2019-04-25T03:09:59.539Z,99.90
2019-04-25T03:12:33.474Z,99.90
2019-04-25T03:15:02.069Z,99.90
2019-04-25T03:17:34.282Z,99.90
2019-04-25T03:20:24.593Z,99.90
2019-04-25T03:22:55.986Z,99.90
2019-04-25T03:25:25.461Z,99.90
2019-04-25T03:28:15.659Z,99.90
2019-04-25T03:30:45.284Z,99.90
2019-04-25T03:33:19.301Z,99.90
2019-04-25T03:35:46.242Z,99.90
2019-04-25T03:38:15.787Z,99.90
2019-04-25T03:40:45.237Z,99.90
2019-04-25T03:43:15.058Z,99.90
2019-04-25T03:45:45.306Z,99.90
2019-04-25T03:48:15.158Z,99.90
2019-04-25T03:50:44.646Z,99.90
2019-04-25T03:53:14.254Z,99.90
2019-04-25T03:56:05.126Z,99.90
2019-04-25T03:58:34.277Z,99.90
2019-04-25T04:01:06.949Z,99.90
2019-04-25T04:03:37.686Z,99.90
2019-04-25T04:06:09.825Z,99.90
2019-04-25T04:08:39.473Z,99.90
2019-04-25T04:11:10.145Z,99.90
2019-04-25T04:13:39.630Z,99.90
2019-04-25T04:16:10.710Z,99.90
2019-04-25T04:18:41.960Z,99.90
2019-04-25T04:21:15.799Z,99.90
2019-04-25T04:23:46.019Z,99.90
2019-04-25T04:26:15.730Z,99.90
2019-04-25T04:28:45.337Z,99.90
2019-04-25T04:31:15.458Z,99.90
2019-04-25T04:34:04.614Z,99.90
2019-04-25T04:36:34.079Z,99.90
2019-04-25T04:39:05.471Z,99.90
2019-04-25T04:41:55.502Z,99.90
2019-04-25T04:44:25.064Z,99.90
2019-04-25T04:47:15.296Z,99.90
2019-04-25T04:50:05.398Z,99.90
2019-04-25T04:52:34.963Z,99.90
2019-04-25T04:55:08.566Z,99.90
2019-04-25T04:57:37.205Z,99.90
2019-04-25T05:00:27.733Z,99.90
2019-04-25T05:02:58.793Z,99.90
2019-04-25T05:05:30.633Z,99.90
2019-04-25T05:08:03.808Z,99.90
2019-04-25T05:10:33.457Z,99.90
2019-04-25T05:13:22.256Z,99.90
2019-04-25T05:15:53.149Z,99.90
2019-04-25T05:18:34.583Z,99.90
2019-04-25T05:20:54.330Z,99.90
2019-04-25T05:23:24.907Z,99.90
2019-04-25T05:26:04.398Z,99.90
2019-04-25T05:28:54.806Z,99.90
2019-04-25T05:31:25.999Z,99.90
2019-04-25T05:33:55.482Z,99.90
2019-04-25T05:36:26.818Z,99.90
2019-04-25T05:38:56.562Z,99.90
2019-04-25T05:41:27.645Z,99.90
2019-04-25T05:43:57.103Z,99.90
2019-04-25T05:46:26.606Z,99.90
2019-04-25T05:48:56.076Z,99.90
2019-04-25T05:51:25.960Z,99.90
2019-04-25T05:53:55.594Z,99.90
2019-04-25T05:56:26.925Z,99.90
2019-04-25T05:59:15.891Z,99.90
2019-04-25T06:01:45.372Z,99.90
2019-04-25T06:04:14.857Z,99.90
2019-04-25T06:06:44.653Z,99.90
2019-04-25T06:09:15.801Z,99.90
2019-04-25T06:11:46.899Z,99.90
2019-04-25T06:14:18.383Z,99.90
2019-04-25T06:16:47.968Z,99.90
2019-04-25T06:19:20.822Z,99.90
2019-04-25T06:21:50.912Z,99.90
2019-04-25T06:24:24.341Z,99.90
2019-04-25T06:26:54.902Z,99.90
2019-04-25T06:29:57.359Z,99.90
2019-04-25T06:32:16.785Z,99.90
2019-04-25T06:34:46.378Z,99.90
2019-04-25T06:37:16.072Z,99.90
2019-04-25T06:39:45.542Z,99.90
2019-04-25T06:42:15.010Z,99.90
2019-04-25T06:44:46.267Z,99.90
2019-04-25T06:47:36.651Z,99.90
2019-04-25T06:50:08.046Z,99.90
2019-04-25T06:52:37.541Z,99.90
2019-04-25T06:55:27.242Z,99.90
2019-04-25T06:58:08.900Z,99.90
2019-04-25T07:00:29.829Z,99.90
2019-04-25T07:03:00.087Z,99.90
2019-04-25T07:05:35.859Z,99.90
2019-04-25T07:08:03.187Z,99.90
2019-04-25T07:10:33.922Z,99.90
2019-04-25T07:13:04.456Z,99.90
2019-04-25T07:15:35.195Z,99.90
2019-04-25T07:18:05.274Z,99.90
2019-04-25T07:20:40.819Z,99.90
2019-04-25T07:23:10.482Z,99.90
2019-04-25T07:25:41.862Z,99.90
2019-04-25T07:28:23.547Z,99.90
2019-04-25T07:30:51.695Z,99.90
2019-04-25T07:33:19.250Z,99.90
2019-04-25T07:35:48.743Z,99.90
2019-04-25T07:38:18.322Z,99.90
2019-04-25T07:41:07.101Z,99.90
2019-04-25T07:43:37.262Z,99.90
2019-04-25T07:46:10.922Z,99.90
2019-04-25T07:48:40.476Z,99.90
2019-04-25T07:51:10.074Z,99.90
2019-04-25T07:53:45.340Z,99.90
2019-04-25T07:56:15.215Z,99.90
2019-04-25T07:58:50.474Z,99.90
2019-04-25T08:01:16.332Z,99.90
2019-04-25T08:03:45.874Z,99.90
2019-04-25T08:06:15.466Z,99.90
2019-04-25T08:08:46.548Z,99.90
2019-04-25T08:11:36.226Z,99.90
2019-04-25T08:14:08.268Z,99.90
2019-04-25T08:16:39.496Z,99.90
2019-04-25T08:19:09.182Z,99.90
2019-04-25T08:21:39.580Z,99.90
2019-04-25T08:24:10.922Z,99.90
2019-04-25T08:26:41.766Z,99.90
2019-04-25T08:29:12.919Z,99.90
2019-04-25T08:31:43.920Z,99.90
2019-04-25T08:34:14.649Z,99.90
2019-04-25T08:36:45.674Z,99.90
2019-04-25T08:39:15.689Z,99.90
2019-04-25T08:41:45.801Z,99.90
2019-04-25T08:44:15.620Z,99.90
2019-04-25T08:47:04.607Z,99.90
2019-04-25T08:49:36.264Z,99.90
2019-04-25T08:52:06.256Z,99.90
2019-04-25T08:54:41.123Z,99.90
2019-04-25T08:57:10.219Z,99.90
2019-04-25T09:00:00.630Z,99.90
2019-04-25T09:02:34.469Z,99.90
2019-04-25T09:05:04.628Z,99.90
2019-04-25T09:07:35.438Z,99.90
2019-04-25T09:10:07.705Z,99.90
2019-04-25T09:12:37.798Z,99.90
2019-04-25T09:15:08.558Z,99.90
2019-04-25T09:17:38.089Z,99.90
2019-04-25T09:20:26.926Z,99.90
2019-04-25T09:22:56.412Z,99.90
2019-04-25T09:25:25.940Z,99.90
2019-04-25T09:27:55.470Z,99.90
2019-04-25T09:30:26.510Z,99.90
2019-04-25T09:33:15.346Z,99.90
2019-04-25T09:35:45.962Z,99.90
2019-04-25T09:38:15.986Z,99.90
2019-04-25T09:40:46.617Z,99.90
2019-04-25T09:43:18.575Z,99.90
2019-04-25T09:46:08.693Z,99.90
2019-04-25T09:48:40.265Z,99.90
2019-04-25T09:51:13.444Z,99.90
2019-04-25T09:53:50.030Z,99.90
2019-04-25T09:56:17.504Z,99.90
2019-04-25T09:58:49.469Z,99.90
2019-04-25T10:01:20.006Z,99.90
2019-04-25T10:04:08.983Z,99.90
2019-04-25T10:06:38.886Z,99.90
2019-04-25T10:09:10.846Z,99.90
2019-04-25T10:11:40.640Z,99.90
2019-04-25T10:14:14.926Z,99.90
2019-04-25T10:16:45.984Z,99.90
2019-04-25T10:19:34.803Z,99.90
2019-04-25T10:22:04.656Z,99.90
2019-04-25T10:25:00.245Z,99.90
2019-04-25T10:27:24.928Z,99.90
2019-04-25T10:29:57.169Z,99.90
2019-04-25T10:32:26.120Z,99.90
2019-04-25T10:34:55.592Z,99.90
2019-04-25T10:37:25.868Z,97.10
2019-04-25T10:39:55.737Z,92.20
2019-04-25T10:42:25.793Z,90.10
2019-04-25T10:44:56.652Z,92.70
2019-04-25T10:47:26.520Z,93.40
2019-04-25T10:49:56.001Z,90.60
2019-04-25T10:52:25.831Z,91.90
2019-04-25T10:54:56.725Z,92.50
2019-04-25T10:57:46.516Z,98.50
2019-04-25T11:00:24.038Z,99.90
2019-04-25T11:03:14.577Z,99.60
2019-04-25T11:06:04.009Z,98.20
2019-04-25T11:08:34.350Z,93.60
2019-04-25T11:11:04.400Z,90.90
2019-04-25T11:13:35.472Z,89.10
2019-04-25T11:16:08.204Z,83.90
2019-04-25T11:18:37.887Z,75.10
2019-04-25T11:21:07.546Z,81.40
2019-04-25T11:23:37.042Z,80.80
2019-04-25T11:26:06.926Z,75.60
2019-04-25T11:28:37.464Z,86.00
2019-04-25T11:31:08.915Z,81.30
2019-04-25T11:33:57.855Z,75.00
2019-04-25T11:36:27.756Z,81.70
2019-04-25T11:38:59.274Z,68.30
2019-04-25T11:41:29.158Z,62.60
2019-04-25T11:44:01.387Z,66.50
2019-04-25T11:46:40.178Z,63.10
2019-04-25T11:49:09.943Z,58.90
2019-04-25T11:51:39.668Z,60.80
2019-04-25T11:54:09.144Z,60.40
2019-04-25T11:56:38.629Z,61.70
2019-04-25T11:59:08.190Z,57.60
2019-04-25T12:01:47.538Z,62.10
2019-04-25T12:04:16.873Z,64.90
2019-04-25T12:06:47.576Z,59.20
2019-04-25T12:09:18.253Z,56.30
2019-04-25T12:11:50.391Z,57.80
2019-04-25T12:14:39.191Z,57.00
2019-04-25T12:17:08.668Z,59.00
2019-04-25T12:19:38.368Z,61.40
2019-04-25T12:22:27.410Z,61.50
2019-04-25T12:24:56.874Z,58.30
2019-04-25T12:27:48.583Z,64.60
2019-04-25T12:30:17.509Z,55.80
2019-04-25T12:33:18.271Z,54.30
2019-04-25T12:35:56.873Z,59.50
2019-04-25T12:38:26.384Z,54.70
2019-04-25T12:40:56.128Z,57.70
2019-04-25T12:43:27.234Z,55.00
2019-04-25T12:45:58.454Z,55.00
2019-04-25T12:48:28.116Z,52.30
2019-04-25T12:50:57.931Z,53.40
2019-04-25T12:53:27.680Z,54.00
2019-04-25T12:56:16.525Z,51.10
2019-04-25T12:58:46.050Z,51.30
2019-04-25T13:01:16.177Z,49.70
2019-04-25T13:03:45.675Z,50.90
2019-04-25T13:06:15.803Z,49.60
2019-04-25T13:08:45.444Z,48.60
2019-04-25T13:11:15.187Z,47.20
2019-04-25T13:13:46.194Z,49.20
2019-04-25T13:16:35.011Z,47.10
2019-04-25T13:19:16.376Z,46.60
2019-04-25T13:21:38.567Z,46.60
2019-04-25T13:24:08.061Z,48.20
2019-04-25T13:26:43.508Z,49.20
2019-04-25T13:29:14.722Z,48.20
2019-04-25T13:31:45.963Z,46.00
2019-04-25T13:34:17.101Z,44.70
2019-04-25T13:36:46.590Z,44.10
2019-04-25T13:39:35.405Z,45.00
2019-04-25T13:42:06.749Z,47.10
2019-04-25T13:44:36.307Z,46.70
2019-04-25T13:47:06.755Z,49.10
2019-04-25T13:49:36.565Z,49.90
2019-04-25T13:52:09.370Z,49.40
2019-04-25T13:54:39.040Z,50.30
2019-04-25T13:57:08.571Z,49.60
2019-04-25T13:59:41.014Z,48.70
2019-04-25T14:02:11.242Z,49.30
2019-04-25T14:04:46.357Z,50.30
2019-04-25T14:07:15.987Z,50.10
2019-04-25T14:10:06.275Z,50.10
2019-04-25T14:12:55.184Z,50.80
2019-04-25T14:15:25.638Z,48.90
2019-04-25T14:17:56.909Z,48.50
2019-04-25T14:20:28.094Z,49.10
2019-04-25T14:23:17.591Z,47.40
2019-04-25T14:25:47.227Z,48.40
2019-04-25T14:28:16.894Z,46.80
2019-04-25T14:30:46.435Z,47.20
2019-04-25T14:33:15.994Z,47.80
2019-04-25T14:35:45.484Z,47.30
2019-04-25T14:38:17.714Z,46.70
2019-04-25T14:40:48.760Z,46.80
2019-04-25T14:43:18.258Z,49.30
2019-04-25T14:45:47.764Z,46.30
2019-04-25T14:48:17.263Z,44.80
2019-04-25T14:50:46.921Z,46.00
2019-04-25T14:53:16.448Z,47.10
2019-04-25T14:55:47.567Z,46.80
2019-04-25T14:58:18.896Z,48.30
2019-04-25T15:00:50.114Z,48.80
2019-04-25T15:03:19.569Z,52.70
2019-04-25T15:05:49.068Z,52.40
2019-04-25T15:08:18.612Z,52.90
2019-04-25T15:10:48.569Z,54.50
2019-04-25T15:13:18.322Z,56.10
2019-04-25T15:15:48.013Z,55.20
2019-04-25T15:18:17.538Z,56.40
2019-04-25T15:20:47.038Z,57.00
2019-04-25T15:23:16.546Z,57.50
2019-04-25T15:25:46.047Z,57.70
2019-04-25T15:28:15.598Z,59.40
2019-04-25T15:30:45.946Z,59.10
2019-04-25T15:33:15.547Z,61.90
2019-04-25T15:35:46.625Z,67.40
2019-04-25T15:38:17.857Z,76.50
2019-04-25T15:40:50.921Z,84.50
2019-04-25T15:43:41.371Z,92.30
2019-04-25T15:46:12.619Z,90.60
2019-04-25T15:48:42.194Z,80.80
2019-04-25T15:51:18.483Z,77.30
2019-04-25T15:53:47.940Z,77.90
2019-04-25T15:56:17.478Z,75.10
2019-04-25T15:58:47.062Z,76.00
2019-04-25T16:01:16.925Z,75.50
2019-04-25T16:03:46.413Z,75.80
2019-04-25T16:06:15.949Z,76.90
2019-04-25T16:08:45.606Z,74.70
2019-04-25T16:11:15.372Z,78.00
2019-04-25T16:13:44.890Z,78.90
2019-04-25T16:16:14.386Z,77.40
2019-04-25T16:18:43.901Z,79.20
2019-04-25T16:21:13.435Z,79.40
2019-04-25T16:23:42.958Z,82.00
2019-04-25T16:26:13.042Z,82.30
2019-04-25T16:28:42.569Z,84.80
2019-04-25T16:31:13.647Z,86.00
2019-04-25T16:33:43.138Z,85.20
2019-04-25T16:36:12.928Z,86.00
2019-04-25T16:38:42.426Z,88.90
2019-04-25T16:41:12.240Z,86.00
2019-04-25T16:43:43.388Z,90.00
2019-04-25T16:46:13.823Z,93.00
2019-04-25T16:48:43.366Z,93.90
2019-04-25T16:51:13.282Z,94.90
2019-04-25T16:53:42.746Z,95.60
2019-04-25T16:56:12.548Z,98.90
2019-04-25T16:59:01.442Z,98.60
2019-04-25T17:01:31.668Z,98.80
2019-04-25T17:04:01.426Z,99.30
2019-04-25T17:06:31.435Z,99.90
2019-04-25T17:09:00.884Z,99.90
2019-04-25T17:11:30.990Z,99.90
2019-04-25T17:14:03.109Z,99.90
2019-04-25T17:16:34.776Z,99.90
2019-04-25T17:19:06.068Z,99.90
2019-04-25T17:21:55.067Z,99.90
2019-04-25T17:24:24.529Z,99.90
2019-04-25T17:26:53.851Z,99.90
2019-04-25T17:29:23.423Z,99.90
2019-04-25T17:31:54.502Z,99.90
2019-04-25T17:34:25.758Z,99.90
2019-04-25T17:36:56.854Z,99.90
2019-04-25T17:39:28.027Z,99.90
2019-04-25T17:41:57.523Z,99.90
2019-04-25T17:44:46.382Z,99.90
2019-04-25T17:47:15.951Z,99.90
2019-04-25T17:49:45.706Z,99.90
2019-04-25T17:52:15.196Z,99.90
2019-04-25T17:54:46.178Z,99.90
2019-04-25T17:57:15.751Z,99.90
2019-04-25T18:00:08.694Z,99.90
2019-04-25T18:02:39.139Z,99.90
2019-04-25T18:05:09.026Z,99.90
2019-04-25T18:07:39.024Z,99.90
2019-04-25T18:10:10.419Z,99.90
2019-04-25T18:12:40.102Z,99.90
2019-04-25T18:15:30.599Z,99.90
2019-04-25T18:18:01.968Z,99.90
2019-04-25T18:33:10.618Z,99.90
2019-04-25T18:35:41.682Z,99.90
2019-04-25T18:38:31.896Z,99.90
2019-04-25T18:41:03.332Z,99.90
2019-04-25T18:43:34.410Z,99.90
2019-04-25T18:46:05.527Z,99.90
2019-04-25T18:48:35.003Z,99.90
2019-04-25T18:51:07.321Z,99.90
2019-04-25T18:53:39.200Z,99.90
2019-04-25T18:56:11.301Z,99.90
2019-04-25T18:58:42.427Z,99.90
2019-04-25T19:01:13.504Z,99.90
2019-04-25T19:03:45.792Z,99.90
2019-04-25T19:06:17.071Z,99.90
2019-04-25T19:08:47.129Z,99.90
2019-04-25T19:11:16.651Z,99.90
2019-04-25T19:13:47.372Z,99.90
2019-04-25T19:16:36.258Z,99.90
2019-04-25T19:19:05.891Z,99.90
2019-04-25T19:21:35.379Z,99.90
2019-04-25T19:24:06.041Z,99.90
2019-04-25T19:26:35.580Z,99.90
2019-04-25T19:29:05.148Z,99.90
2019-04-25T19:31:34.705Z,99.90
2019-04-25T19:34:04.801Z,99.90
2019-04-25T19:36:34.278Z,99.90
2019-04-25T19:39:05.803Z,99.90
2019-04-25T19:41:36.904Z,99.90
2019-04-25T19:44:08.188Z,99.90
2019-04-25T19:46:57.030Z,99.90
2019-04-25T19:49:26.538Z,99.90
2019-04-25T19:51:55.988Z,99.90
2019-04-25T19:54:25.523Z,99.90
2019-04-25T19:56:56.466Z,99.90
2019-04-25T19:59:26.097Z,99.90
2019-04-25T20:02:16.608Z,99.90
2019-04-25T20:04:48.652Z,99.90
2019-04-25T20:07:20.017Z,99.90
2019-04-25T20:09:51.213Z,99.90
2019-04-25T20:12:22.296Z,99.90
2019-04-25T20:14:51.774Z,99.90
2019-04-25T20:17:40.557Z,99.90
2019-04-25T20:20:13.355Z,99.90
2019-04-25T20:22:43.801Z,99.90
2019-04-25T20:25:14.729Z,99.90
2019-04-25T20:27:44.445Z,99.90
2019-04-25T20:30:34.501Z,99.90
2019-04-25T20:33:05.564Z,99.90
2019-04-25T20:35:35.071Z,99.90
2019-04-25T20:38:04.859Z,99.90
2019-04-25T20:40:34.357Z,99.90
2019-04-25T20:43:03.830Z,99.90
2019-04-25T20:45:33.437Z,99.90
2019-04-25T20:48:02.890Z,99.90
2019-04-25T20:50:32.357Z,99.90
2019-04-25T20:53:01.848Z,99.90
2019-04-25T20:55:31.319Z,99.90
2019-04-25T20:58:00.818Z,99.90
2019-04-25T21:00:35.638Z,99.90
2019-04-25T21:03:24.410Z,99.90
2019-04-25T21:05:55.540Z,99.90
2019-04-25T21:08:25.240Z,99.90
2019-04-25T21:11:14.103Z,99.90
2019-04-25T21:13:45.204Z,99.90
2019-04-25T21:16:16.306Z,99.90
2019-04-25T21:18:47.477Z,99.90
2019-04-25T21:21:16.974Z,99.90
2019-04-25T21:24:05.798Z,99.90
2019-04-25T21:26:35.350Z,99.90
2019-04-25T21:29:05.016Z,99.90
2019-04-25T21:31:34.606Z,99.90
2019-04-25T21:34:04.085Z,99.90
2019-04-25T21:36:33.917Z,99.90
2019-04-25T21:39:06.726Z,99.90
2019-04-25T21:41:57.703Z,99.90
2019-04-25T21:44:46.893Z,99.90
2019-04-25T21:47:16.377Z,99.90
2019-04-25T21:49:46.292Z,99.90
2019-04-25T21:52:15.802Z,99.90
2019-04-25T21:54:45.638Z,99.90
2019-04-25T21:57:36.119Z,99.90
2019-04-25T22:00:11.039Z,99.90
2019-04-25T22:02:42.609Z,99.90
2019-04-25T22:05:13.553Z,99.90
2019-04-25T22:07:43.505Z,99.90
2019-04-25T22:10:13.892Z,99.90
2019-04-25T22:12:43.442Z,99.90
2019-04-25T22:15:13.482Z,99.90
2019-04-25T22:17:43.225Z,99.90
2019-04-25T22:20:13.537Z,99.90
2019-04-25T22:22:44.778Z,99.90
2019-04-25T22:25:15.882Z,99.90
2019-04-25T22:27:46.300Z,99.90
2019-04-25T22:30:17.770Z,99.90
2019-04-25T22:32:49.194Z,99.90
2019-04-25T22:35:29.140Z,99.90
2019-04-25T22:37:59.996Z,99.90
2019-04-25T22:40:31.024Z,99.90
2019-04-25T22:43:01.658Z,99.90
2019-04-25T22:45:31.273Z,99.90
2019-04-25T22:48:01.308Z,99.90
2019-04-25T22:50:31.886Z,99.90
2019-04-25T22:53:02.072Z,99.90
2019-04-25T22:55:33.093Z,99.90
2019-04-25T22:58:03.623Z,99.90
2019-04-25T23:00:34.966Z,99.90
2019-04-25T23:03:07.320Z,99.90
2019-04-25T23:05:38.462Z,99.90
2019-04-25T23:08:08.166Z,99.90
2019-04-25T23:10:39.611Z,99.90
2019-04-25T23:13:10.950Z,99.90
2019-04-25T23:15:40.589Z,99.90
2019-04-25T23:18:11.402Z,99.90
2019-04-25T23:20:40.947Z,99.90
2019-04-25T23:23:11.693Z,99.90
2019-04-25T23:25:42.918Z,99.90
2019-04-25T23:28:14.217Z,99.90
2019-04-25T23:30:45.653Z,99.90
2019-04-25T23:33:21.068Z,99.90
2019-04-25T23:35:51.600Z,99.90
2019-04-25T23:38:26.740Z,99.90
2019-04-25T23:40:56.228Z,99.90
2019-04-25T23:43:26.026Z,99.90
2019-04-25T23:45:55.534Z,99.90
2019-04-25T23:48:25.216Z,99.90
2019-04-25T23:51:00.897Z,99.90
2019-04-25T23:53:30.921Z,99.90
2019-04-25T23:56:00.651Z,99.90
2019-04-25T23:58:30.251Z,99.90
